createdAt,value
2022-10-13T00:00:54.501Z,99.99
2022-10-13T00:01:54.436Z,99.99
2022-10-13T00:02:54.432Z,99.99
2022-10-13T00:03:54.433Z,99.99
2022-10-13T00:04:54.412Z,99.99
2022-10-13T00:05:54.384Z,99.99
2022-10-13T00:06:54.384Z,99.99
2022-10-13T00:07:54.644Z,99.99
2022-10-13T00:08:54.352Z,99.99
2022-10-13T00:09:54.360Z,99.99
2022-10-13T00:10:54.333Z,99.99
2022-10-13T00:11:54.423Z,99.99
2022-10-13T00:12:54.327Z,99.99
2022-10-13T00:13:54.326Z,99.99
2022-10-13T00:14:55.032Z,99.99
2022-10-13T00:15:54.384Z,99.99
2022-10-13T00:16:54.356Z,99.99
2022-10-13T00:17:54.344Z,99.99
2022-10-13T00:18:54.392Z,99.99
2022-10-13T00:19:54.404Z,99.99
2022-10-13T00:20:54.493Z,99.99
2022-10-13T00:21:54.498Z,99.99
2022-10-13T00:22:54.386Z,99.99
2022-10-13T00:23:54.366Z,99.99
2022-10-13T00:24:54.328Z,99.99
2022-10-13T00:25:54.392Z,99.99
2022-10-13T00:26:54.345Z,99.99
2022-10-13T00:27:54.154Z,99.99
2022-10-13T00:28:54.195Z,99.99
2022-10-13T00:29:54.389Z,99.99
2022-10-13T00:30:54.106Z,99.99
2022-10-13T00:31:54.113Z,99.99
2022-10-13T00:32:54.096Z,99.99
2022-10-13T00:33:54.110Z,99.99
2022-10-13T00:34:54.045Z,99.99
2022-10-13T00:35:54.061Z,99.99
2022-10-13T00:36:54.030Z,99.99
2022-10-13T00:37:54.028Z,99.99
2022-10-13T00:38:54.014Z,99.99
2022-10-13T00:39:54.041Z,99.99
2022-10-13T00:40:53.986Z,99.99
2022-10-13T00:41:53.992Z,99.99
2022-10-13T00:42:53.965Z,99.99
2022-10-13T00:43:54.301Z,99.99
2022-10-13T00:44:53.945Z,99.99
2022-10-13T00:45:53.944Z,99.99
2022-10-13T00:46:53.913Z,99.99
2022-10-13T00:47:53.925Z,99.99
2022-10-13T00:48:53.912Z,99.99
2022-10-13T00:49:53.921Z,99.99
2022-10-13T00:50:53.900Z,99.99
2022-10-13T00:51:53.857Z,99.99
2022-10-13T00:52:53.845Z,99.99
2022-10-13T00:53:53.864Z,99.99
2022-10-13T00:54:53.857Z,99.99
2022-10-13T00:55:53.824Z,99.99
2022-10-13T00:56:53.798Z,99.99
2022-10-13T00:57:53.792Z,99.99
2022-10-13T00:58:53.885Z,99.99
2022-10-13T00:59:53.816Z,99.99
2022-10-13T01:00:53.826Z,99.99
2022-10-13T01:01:53.753Z,99.99
2022-10-13T01:02:53.759Z,99.99
2022-10-13T01:03:53.766Z,99.99
2022-10-13T01:04:53.745Z,99.99
2022-10-13T01:05:53.724Z,99.99
2022-10-13T01:06:53.693Z,99.99
2022-10-13T01:07:53.698Z,99.99
2022-10-13T01:08:53.664Z,99.99
2022-10-13T01:09:53.689Z,99.99
2022-10-13T01:10:53.660Z,99.99
2022-10-13T01:11:53.638Z,99.99
2022-10-13T01:12:53.616Z,99.99
2022-10-13T01:13:53.638Z,99.99
2022-10-13T01:14:53.605Z,99.99
2022-10-13T01:15:53.585Z,99.99
2022-10-13T01:16:53.577Z,99.99
2022-10-13T01:17:53.573Z,99.99
2022-10-13T01:18:53.560Z,99.99
2022-10-13T01:19:53.558Z,99.99
2022-10-13T01:20:53.546Z,99.99
2022-10-13T01:21:53.527Z,99.99
2022-10-13T01:22:53.501Z,99.99
2022-10-13T01:23:53.545Z,99.99
2022-10-13T01:24:53.509Z,99.99
2022-10-13T01:25:53.490Z,99.99
2022-10-13T01:26:53.474Z,99.99
2022-10-13T01:27:53.462Z,99.99
2022-10-13T01:28:53.481Z,99.99
2022-10-13T01:29:53.438Z,99.99
2022-10-13T01:30:53.419Z,99.99
2022-10-13T01:31:53.418Z,99.99
2022-10-13T01:32:53.402Z,99.99
2022-10-13T01:33:53.401Z,99.99
2022-10-13T01:34:53.401Z,99.99
2022-10-13T01:35:53.383Z,99.99
2022-10-13T01:36:53.350Z,99.99
2022-10-13T01:37:53.349Z,99.99
2022-10-13T01:38:53.362Z,99.99
2022-10-13T01:39:53.339Z,99.99
2022-10-13T01:40:53.297Z,99.99
2022-10-13T01:41:53.306Z,99.99
2022-10-13T01:42:53.277Z,99.99
2022-10-13T01:43:53.296Z,99.99
2022-10-13T01:44:53.277Z,99.99
2022-10-13T01:45:53.270Z,99.99
2022-10-13T01:46:53.231Z,99.99
2022-10-13T01:47:53.234Z,99.99
2022-10-13T01:48:53.210Z,99.99
2022-10-13T01:49:53.218Z,99.99
2022-10-13T01:50:53.199Z,99.99
2022-10-13T01:51:53.186Z,99.99
2022-10-13T01:52:53.165Z,99.99
2022-10-13T01:53:53.175Z,99.99
2022-10-13T01:54:53.158Z,99.99
2022-10-13T01:55:53.137Z,99.99
2022-10-13T01:56:53.110Z,99.99
2022-10-13T01:57:53.127Z,99.99
2022-10-13T01:58:53.107Z,99.99
2022-10-13T01:59:53.119Z,99.99
2022-10-13T02:00:53.111Z,99.99
2022-10-13T02:01:53.068Z,99.99
2022-10-13T02:02:53.051Z,99.99
2022-10-13T02:03:53.047Z,99.99
2022-10-13T02:04:53.067Z,99.99
2022-10-13T02:05:53.046Z,99.99
2022-10-13T02:06:53.053Z,99.99
2022-10-13T02:07:53.006Z,99.99
2022-10-13T02:08:52.978Z,99.99
2022-10-13T02:09:53.003Z,99.99
2022-10-13T02:10:52.980Z,99.99
2022-10-13T02:11:53.006Z,99.99
2022-10-13T02:12:53.036Z,99.99
2022-10-13T02:13:53.054Z,99.99
2022-10-13T02:14:53.130Z,99.99
2022-10-13T02:15:53.165Z,99.99
2022-10-13T02:16:53.158Z,99.99
2022-10-13T02:17:52.898Z,99.99
2022-10-13T02:18:52.871Z,99.99
2022-10-13T02:19:52.991Z,99.99
2022-10-13T02:20:52.870Z,99.99
2022-10-13T02:21:52.850Z,99.99
2022-10-13T02:22:52.818Z,99.99
2022-10-13T02:23:52.850Z,99.99
2022-10-13T02:24:52.807Z,99.99
2022-10-13T02:25:52.831Z,99.99
2022-10-13T02:26:52.831Z,99.99
2022-10-13T02:27:52.850Z,99.99
2022-10-13T02:28:52.786Z,99.99
2022-10-13T02:29:53.130Z,99.99
2022-10-13T02:30:52.730Z,99.99
2022-10-13T02:31:52.761Z,99.99
2022-10-13T02:32:52.890Z,99.99
2022-10-13T02:33:52.715Z,99.99
2022-10-13T02:34:52.698Z,99.99
2022-10-13T02:35:52.694Z,99.99
2022-10-13T02:36:52.686Z,99.99
2022-10-13T02:37:52.671Z,99.99
2022-10-13T02:38:52.642Z,99.99
2022-10-13T02:39:52.638Z,99.99
2022-10-13T02:40:52.631Z,99.99
2022-10-13T02:41:52.638Z,99.99
2022-10-13T02:42:52.612Z,99.99
2022-10-13T02:43:52.602Z,99.99
2022-10-13T02:44:52.581Z,99.99
2022-10-13T02:45:52.578Z,99.99
2022-10-13T02:46:52.659Z,99.99
2022-10-13T02:47:52.551Z,99.99
2022-10-13T02:48:52.539Z,99.99
2022-10-13T02:49:52.518Z,99.99
2022-10-13T02:50:52.525Z,99.99
2022-10-13T02:51:52.511Z,99.99
2022-10-13T02:52:52.851Z,99.99
2022-10-13T02:53:52.492Z,99.99
2022-10-13T02:54:52.478Z,99.99
2022-10-13T02:55:52.463Z,99.99
2022-10-13T02:56:52.439Z,99.99
2022-10-13T02:57:52.470Z,99.99
2022-10-13T02:58:52.419Z,99.99
2022-10-13T02:59:52.411Z,99.99
2022-10-13T03:00:52.448Z,99.99
2022-10-13T03:01:52.431Z,99.99
2022-10-13T03:02:52.378Z,99.99
2022-10-13T03:03:52.393Z,99.99
2022-10-13T03:04:52.351Z,99.99
2022-10-13T03:05:52.339Z,99.99
2022-10-13T03:06:52.323Z,99.99
2022-10-13T03:07:52.336Z,99.99
2022-10-13T03:08:52.311Z,99.99
2022-10-13T03:09:52.293Z,99.99
2022-10-13T03:10:52.292Z,99.99
2022-10-13T03:11:52.303Z,99.99
2022-10-13T03:12:52.403Z,99.99
2022-10-13T03:13:52.272Z,99.99
2022-10-13T03:14:52.248Z,99.99
2022-10-13T03:15:52.235Z,99.99
2022-10-13T03:16:52.216Z,99.99
2022-10-13T03:17:52.211Z,99.99
2022-10-13T03:18:52.227Z,99.99
2022-10-13T03:19:52.191Z,99.99
2022-10-13T03:20:52.164Z,99.99
2022-10-13T03:21:52.172Z,99.99
2022-10-13T03:22:52.163Z,99.99
2022-10-13T03:23:52.155Z,99.99
2022-10-13T03:24:52.143Z,99.99
2022-10-13T03:25:52.112Z,99.99
2022-10-13T03:26:52.111Z,99.99
2022-10-13T03:27:52.099Z,99.99
2022-10-13T03:28:52.261Z,99.99
2022-10-13T03:29:52.084Z,99.99
2022-10-13T03:30:52.064Z,99.99
2022-10-13T03:31:52.060Z,99.99
2022-10-13T03:32:52.864Z,99.99
2022-10-13T03:33:52.011Z,99.99
2022-10-13T03:34:52.036Z,99.99
2022-10-13T03:35:52.027Z,99.99
2022-10-13T03:36:52.009Z,99.99
2022-10-13T03:37:51.970Z,99.99
2022-10-13T03:38:52.043Z,99.99
2022-10-13T03:39:51.952Z,99.99
2022-10-13T03:40:51.944Z,99.99
2022-10-13T03:41:51.933Z,99.99
2022-10-13T03:42:51.984Z,99.99
2022-10-13T03:43:51.935Z,99.99
2022-10-13T03:44:56.109Z,99.99
2022-10-13T03:45:51.908Z,99.99
2022-10-13T03:46:51.902Z,99.99
2022-10-13T03:47:51.853Z,99.99
2022-10-13T03:48:51.863Z,99.99
2022-10-13T03:49:51.872Z,99.99
2022-10-13T03:50:51.836Z,99.99
2022-10-13T03:51:51.825Z,99.99
2022-10-13T03:52:52.185Z,99.99
2022-10-13T03:53:51.796Z,99.99
2022-10-13T03:54:51.776Z,99.99
2022-10-13T03:55:51.805Z,99.99
2022-10-13T03:56:51.764Z,99.99
2022-10-13T03:57:51.745Z,99.99
2022-10-13T03:58:51.786Z,99.99
2022-10-13T03:59:51.716Z,99.99
2022-10-13T04:00:51.737Z,99.99
2022-10-13T04:01:51.894Z,99.99
2022-10-13T04:02:51.764Z,99.99
2022-10-13T04:03:51.780Z,99.99
2022-10-13T04:04:51.845Z,99.99
2022-10-13T04:05:51.723Z,99.99
2022-10-13T04:06:51.916Z,99.99
2022-10-13T04:07:51.656Z,99.99
2022-10-13T04:08:51.684Z,99.99
2022-10-13T04:09:51.684Z,99.99
2022-10-13T04:10:51.633Z,99.99
2022-10-13T04:11:51.606Z,99.99
2022-10-13T04:12:51.605Z,99.99
2022-10-13T04:13:51.557Z,99.99
2022-10-13T04:14:51.577Z,99.99
2022-10-13T04:15:51.572Z,99.99
2022-10-13T04:16:51.698Z,99.99
2022-10-13T04:17:51.557Z,99.99
2022-10-13T04:18:51.549Z,99.99
2022-10-13T04:19:51.500Z,99.99
2022-10-13T04:20:51.509Z,99.99
2022-10-13T04:21:51.483Z,99.99
2022-10-13T04:22:51.528Z,99.99
2022-10-13T04:23:51.465Z,99.99
2022-10-13T04:24:51.517Z,99.99
2022-10-13T04:25:51.466Z,99.99
2022-10-13T04:26:51.549Z,99.99
2022-10-13T04:27:51.438Z,99.99
2022-10-13T04:28:51.434Z,99.99
2022-10-13T04:29:51.409Z,99.99
2022-10-13T04:30:51.465Z,99.99
2022-10-13T04:31:51.377Z,99.99
2022-10-13T04:32:51.392Z,99.99
2022-10-13T04:33:51.346Z,99.99
2022-10-13T04:34:51.365Z,99.99
2022-10-13T04:35:51.325Z,99.99
2022-10-13T04:36:51.391Z,99.99
2022-10-13T04:37:51.390Z,99.99
2022-10-13T04:38:51.322Z,99.99
2022-10-13T04:39:51.290Z,99.99
2022-10-13T04:40:51.282Z,99.99
2022-10-13T04:41:51.585Z,99.99
2022-10-13T04:42:51.278Z,99.99
2022-10-13T04:43:51.237Z,99.99
2022-10-13T04:44:51.238Z,99.99
2022-10-13T04:45:51.217Z,99.99
2022-10-13T04:46:51.218Z,99.99
2022-10-13T04:47:51.210Z,99.99
2022-10-13T04:48:51.205Z,99.99
2022-10-13T04:49:51.165Z,99.99
2022-10-13T04:50:51.169Z,99.99
2022-10-13T04:51:51.138Z,99.99
2022-10-13T04:52:51.138Z,99.99
2022-10-13T04:53:51.230Z,99.99
2022-10-13T04:54:51.106Z,99.99
2022-10-13T04:55:51.089Z,99.99
2022-10-13T04:56:51.091Z,99.99
2022-10-13T04:57:51.070Z,99.99
2022-10-13T04:58:51.078Z,99.99
2022-10-13T04:59:51.071Z,99.99
2022-10-13T05:00:51.071Z,99.99
2022-10-13T05:01:51.070Z,99.99
2022-10-13T05:02:51.018Z,99.99
2022-10-13T05:03:51.030Z,99.99
2022-10-13T05:04:51.002Z,99.99
2022-10-13T05:05:50.978Z,99.99
2022-10-13T05:07:16.402Z,99.99
2022-10-13T05:07:51.963Z,99.99
2022-10-13T05:08:50.985Z,99.99
2022-10-13T05:09:50.954Z,99.99
2022-10-13T05:10:50.938Z,99.99
2022-10-13T05:11:50.910Z,99.99
2022-10-13T05:12:50.930Z,99.99
2022-10-13T05:13:50.913Z,99.99
2022-10-13T05:14:50.910Z,99.99
2022-10-13T05:15:50.892Z,99.99
2022-10-13T05:16:50.858Z,99.99
2022-10-13T05:17:50.871Z,99.99
2022-10-13T05:18:50.845Z,99.99
2022-10-13T05:19:50.842Z,99.99
2022-10-13T05:20:50.826Z,99.99
2022-10-13T05:21:50.800Z,99.99
2022-10-13T05:22:50.798Z,99.99
2022-10-13T05:23:50.783Z,99.99
2022-10-13T05:24:50.813Z,99.99
2022-10-13T05:25:50.751Z,99.99
2022-10-13T05:26:50.769Z,99.99
2022-10-13T05:27:50.730Z,99.99
2022-10-13T05:28:50.845Z,99.99
2022-10-13T05:29:50.730Z,99.99
2022-10-13T05:30:50.698Z,99.99
2022-10-13T05:31:50.686Z,99.99
2022-10-13T05:32:53.839Z,99.99
2022-10-13T05:33:50.671Z,99.99
2022-10-13T05:34:50.740Z,99.99
2022-10-13T05:35:50.719Z,99.99
2022-10-13T05:36:50.638Z,99.99
2022-10-13T05:37:50.622Z,99.99
2022-10-13T05:38:50.614Z,99.99
2022-10-13T05:39:50.631Z,99.99
2022-10-13T05:40:50.590Z,99.99
2022-10-13T05:41:50.982Z,99.99
2022-10-13T05:42:50.559Z,99.99
2022-10-13T05:43:50.575Z,99.99
2022-10-13T05:44:50.553Z,99.99
2022-10-13T05:45:50.563Z,99.99
2022-10-13T05:46:50.682Z,99.99
2022-10-13T05:47:50.504Z,99.99
2022-10-13T05:48:50.522Z,99.99
2022-10-13T05:49:50.510Z,99.99
2022-10-13T05:50:50.490Z,99.99
2022-10-13T05:51:50.467Z,99.99
2022-10-13T05:52:50.469Z,99.99
2022-10-13T05:53:55.350Z,99.99
2022-10-13T05:54:51.458Z,99.99
2022-10-13T05:55:50.411Z,99.99
2022-10-13T05:56:50.411Z,99.99
2022-10-13T05:57:50.383Z,99.99
2022-10-13T05:58:50.403Z,99.99
2022-10-13T05:59:50.385Z,99.99
2022-10-13T06:00:50.391Z,99.99
2022-10-13T06:01:50.646Z,99.99
2022-10-13T06:02:50.343Z,99.99
2022-10-13T06:03:50.335Z,99.99
2022-10-13T06:04:50.323Z,99.99
2022-10-13T06:05:50.319Z,99.99
2022-10-13T06:06:50.305Z,99.99
2022-10-13T06:07:50.283Z,99.99
2022-10-13T06:08:50.287Z,99.99
2022-10-13T06:09:50.251Z,99.99
2022-10-13T06:10:50.273Z,99.99
2022-10-13T06:11:50.239Z,99.99
2022-10-13T06:12:50.231Z,99.99
2022-10-13T06:13:50.223Z,99.99
2022-10-13T06:14:50.213Z,99.99
2022-10-13T06:15:50.211Z,99.99
2022-10-13T06:16:50.184Z,99.99
2022-10-13T06:17:50.175Z,99.99
2022-10-13T06:18:50.163Z,99.99
2022-10-13T06:19:50.155Z,99.99
2022-10-13T06:20:50.163Z,99.99
2022-10-13T06:21:50.117Z,99.99
2022-10-13T06:22:50.115Z,99.99
2022-10-13T06:23:50.105Z,99.99
2022-10-13T06:24:50.104Z,99.99
2022-10-13T06:25:50.102Z,99.99
2022-10-13T06:26:50.063Z,99.99
2022-10-13T06:27:50.052Z,99.99
2022-10-13T06:28:52.514Z,99.99
2022-10-13T06:29:50.039Z,99.99
2022-10-13T06:30:50.043Z,99.99
2022-10-13T06:31:50.011Z,99.99
2022-10-13T06:32:50.017Z,99.99
2022-10-13T06:33:49.983Z,99.99
2022-10-13T06:34:49.983Z,99.99
2022-10-13T06:35:49.997Z,99.99
2022-10-13T06:36:49.967Z,99.99
2022-10-13T06:37:49.944Z,99.99
2022-10-13T06:38:49.935Z,99.99
2022-10-13T06:39:49.936Z,99.99
2022-10-13T06:40:49.916Z,99.99
2022-10-13T06:41:49.918Z,99.99
2022-10-13T06:42:49.924Z,99.99
2022-10-13T06:43:49.880Z,99.99
2022-10-13T06:44:49.884Z,99.99
2022-10-13T06:45:49.863Z,99.99
2022-10-13T06:46:49.875Z,99.99
2022-10-13T06:47:49.816Z,99.99
2022-10-13T06:48:49.831Z,99.88
2022-10-13T06:49:49.814Z,99.78
2022-10-13T06:50:49.799Z,99.78
2022-10-13T06:51:49.823Z,99.68
2022-10-13T06:52:49.776Z,99.57
2022-10-13T06:53:49.776Z,99.57
2022-10-13T06:54:49.771Z,99.47
2022-10-13T06:55:52.500Z,99.47
2022-10-13T06:56:49.758Z,99.37
2022-10-13T06:57:49.704Z,99.37
2022-10-13T06:58:49.717Z,99.16
2022-10-13T06:59:49.689Z,99.16
2022-10-13T07:00:49.724Z,99.11
2022-10-13T07:01:49.664Z,99.02
2022-10-13T07:02:49.690Z,98.91
2022-10-13T07:03:49.648Z,98.91
2022-10-13T07:04:49.636Z,98.91
2022-10-13T07:05:49.640Z,98.81
2022-10-13T07:06:49.624Z,98.71
2022-10-13T07:07:49.596Z,98.71
2022-10-13T07:08:49.620Z,98.61
2022-10-13T07:09:49.576Z,98.50
2022-10-13T07:10:49.576Z,98.50
2022-10-13T07:11:49.567Z,98.61
2022-10-13T07:12:49.576Z,98.50
2022-10-13T07:13:49.629Z,98.50
2022-10-13T07:14:49.533Z,98.46
2022-10-13T07:15:49.524Z,98.46
2022-10-13T07:16:49.519Z,98.36
2022-10-13T07:17:49.492Z,98.15
2022-10-13T07:18:49.523Z,98.15
2022-10-13T07:19:49.457Z,98.05
2022-10-13T07:20:49.483Z,98.05
2022-10-13T07:21:49.437Z,98.05
2022-10-13T07:22:49.456Z,98.05
2022-10-13T07:23:49.442Z,97.95
2022-10-13T07:24:49.446Z,97.85
2022-10-13T07:25:49.408Z,97.95
2022-10-13T07:26:49.397Z,97.85
2022-10-13T07:27:49.376Z,97.74
2022-10-13T07:28:49.471Z,97.64
2022-10-13T07:29:49.386Z,97.54
2022-10-13T07:30:49.357Z,97.44
2022-10-13T07:31:49.324Z,97.54
2022-10-13T07:32:49.343Z,97.54
2022-10-13T07:33:49.316Z,97.44
2022-10-13T07:34:49.332Z,97.44
2022-10-13T07:35:49.309Z,97.39
2022-10-13T07:36:49.289Z,97.19
2022-10-13T07:37:49.270Z,97.08
2022-10-13T07:38:49.260Z,96.78
2022-10-13T07:39:49.248Z,96.58
2022-10-13T07:40:49.221Z,96.58
2022-10-13T07:41:51.212Z,96.68
2022-10-13T07:42:49.200Z,96.68
2022-10-13T07:43:49.209Z,96.68
2022-10-13T07:44:49.188Z,96.37
2022-10-13T07:45:49.221Z,96.17
2022-10-13T07:46:49.170Z,96.27
2022-10-13T07:47:49.150Z,96.47
2022-10-13T07:48:49.141Z,96.17
2022-10-13T07:49:49.141Z,96.02
2022-10-13T07:50:49.108Z,96.22
2022-10-13T07:51:49.141Z,96.12
2022-10-13T07:52:49.101Z,96.12
2022-10-13T07:53:49.097Z,95.92
2022-10-13T07:54:49.062Z,96.02
2022-10-13T07:55:49.060Z,96.12
2022-10-13T07:56:49.105Z,96.12
2022-10-13T07:57:49.053Z,95.92
2022-10-13T07:58:49.034Z,95.72
2022-10-13T07:59:49.022Z,95.57
2022-10-13T08:00:49.001Z,95.47
2022-10-13T08:01:49.049Z,94.85
2022-10-13T08:02:49.026Z,94.45
2022-10-13T08:03:50.678Z,94.65
2022-10-13T08:04:48.960Z,93.89
2022-10-13T08:05:48.949Z,93.28
2022-10-13T08:06:48.933Z,93.38
2022-10-13T08:07:48.950Z,93.59
2022-10-13T08:08:48.908Z,93.54
2022-10-13T08:09:48.940Z,93.44
2022-10-13T08:10:48.931Z,92.83
2022-10-13T08:11:48.914Z,91.50
2022-10-13T08:12:48.876Z,91.66
2022-10-13T08:13:48.911Z,91.56
2022-10-13T08:15:48.903Z,92.27
2022-10-13T08:16:51.404Z,91.66
2022-10-13T08:17:49.002Z,91.05
2022-10-13T08:18:48.942Z,91.36
2022-10-13T08:19:48.950Z,90.85
2022-10-13T08:20:48.885Z,90.40
2022-10-13T08:22:09.086Z,90.20
2022-10-13T08:22:49.750Z,89.89
2022-10-13T08:23:48.854Z,89.89
2022-10-13T08:24:49.038Z,90.09
2022-10-13T08:25:49.013Z,90.20
2022-10-13T08:26:48.864Z,90.25
2022-10-13T08:27:51.429Z,90.86
2022-10-13T08:29:02.847Z,89.95
2022-10-13T08:29:49.693Z,90.83
2022-10-13T08:30:49.237Z,89.09
2022-10-13T08:32:48.653Z,88.79
2022-10-13T08:33:48.634Z,88.65
2022-10-13T08:34:48.626Z,87.84
2022-10-13T08:35:48.614Z,87.43
2022-10-13T08:36:48.614Z,86.92
2022-10-13T08:37:48.619Z,86.68
2022-10-13T08:38:48.581Z,86.37
2022-10-13T08:39:48.590Z,87.18
2022-10-13T08:40:48.553Z,86.47
2022-10-13T08:41:48.567Z,86.88
2022-10-13T08:42:48.578Z,85.55
2022-10-13T08:44:20.474Z,85.31
2022-10-13T08:45:16.100Z,85.52
2022-10-13T08:45:49.507Z,85.21
2022-10-13T08:46:48.894Z,85.21
2022-10-13T08:47:48.842Z,84.91
2022-10-13T08:48:48.966Z,85.11
2022-10-13T08:49:49.038Z,84.91
2022-10-13T08:50:49.004Z,85.41
2022-10-13T08:51:48.438Z,85.72
2022-10-13T08:52:48.422Z,85.72
2022-10-13T08:53:48.434Z,85.52
2022-10-13T08:54:48.398Z,85.01
2022-10-13T08:55:48.408Z,84.80
2022-10-13T08:56:48.439Z,85.01
2022-10-13T08:57:48.366Z,85.01
2022-10-13T08:58:48.378Z,85.01
2022-10-13T08:59:48.338Z,84.91
2022-10-13T09:00:48.357Z,85.27
2022-10-13T09:01:48.344Z,85.27
2022-10-13T09:02:48.386Z,84.87
2022-10-13T09:03:48.474Z,84.66
2022-10-13T09:04:48.380Z,84.97
2022-10-13T09:05:48.434Z,84.66
2022-10-13T09:06:48.390Z,84.66
2022-10-13T09:07:48.380Z,85.38
2022-10-13T09:08:48.422Z,84.56
2022-10-13T09:09:48.387Z,84.56
2022-10-13T09:10:48.418Z,84.46
2022-10-13T09:11:48.419Z,84.36
2022-10-13T09:12:48.546Z,84.77
2022-10-13T09:13:48.508Z,85.07
2022-10-13T09:14:48.494Z,85.07
2022-10-13T09:15:48.457Z,84.77
2022-10-13T09:16:48.218Z,84.77
2022-10-13T09:17:48.158Z,85.17
2022-10-13T09:18:48.138Z,84.97
2022-10-13T09:19:48.119Z,85.27
2022-10-13T09:20:48.126Z,85.47
2022-10-13T09:21:48.098Z,84.77
2022-10-13T09:22:48.078Z,84.63
2022-10-13T09:23:48.129Z,84.36
2022-10-13T09:24:48.058Z,84.36
2022-10-13T09:25:48.058Z,84.72
2022-10-13T09:26:48.031Z,85.03
2022-10-13T09:27:48.037Z,84.42
2022-10-13T09:28:48.053Z,84.42
2022-10-13T09:29:48.022Z,84.93
2022-10-13T09:30:48.003Z,85.64
2022-10-13T09:31:47.980Z,84.93
2022-10-13T09:32:47.970Z,84.42
2022-10-13T09:33:47.963Z,84.42
2022-10-13T09:34:47.962Z,84.83
2022-10-13T09:35:47.951Z,84.42
2022-10-13T09:36:47.931Z,84.72
2022-10-13T09:37:47.912Z,84.63
2022-10-13T09:38:47.943Z,84.42
2022-10-13T09:39:47.970Z,84.69
2022-10-13T09:40:47.879Z,84.99
2022-10-13T09:41:47.871Z,84.99
2022-10-13T09:42:47.859Z,84.89
2022-10-13T09:43:47.844Z,84.48
2022-10-13T09:44:47.876Z,83.67
2022-10-13T09:45:47.822Z,84.38
2022-10-13T09:46:47.815Z,83.94
2022-10-13T09:47:47.815Z,83.53
2022-10-13T09:48:47.785Z,83.23
2022-10-13T09:49:47.790Z,83.63
2022-10-13T09:50:47.803Z,83.43
2022-10-13T09:51:47.756Z,83.03
2022-10-13T09:52:47.730Z,83.73
2022-10-13T09:53:47.723Z,83.73
2022-10-13T09:54:47.728Z,83.63
2022-10-13T09:55:47.722Z,84.20
2022-10-13T09:56:47.715Z,82.68
2022-10-13T09:57:47.694Z,83.09
2022-10-13T09:58:47.672Z,82.98
2022-10-13T09:59:48.036Z,81.67
2022-10-13T10:00:47.665Z,81.46
2022-10-13T10:01:47.663Z,82.38
2022-10-13T10:02:47.615Z,82.38
2022-10-13T10:03:47.670Z,83.09
2022-10-13T10:04:47.607Z,81.46
2022-10-13T10:05:47.616Z,81.46
2022-10-13T10:06:47.614Z,82.17
2022-10-13T10:07:47.576Z,81.37
2022-10-13T10:09:04.636Z,81.67
2022-10-13T10:09:48.596Z,82.68
2022-10-13T10:10:47.563Z,82.58
2022-10-13T10:11:47.535Z,82.84
2022-10-13T10:12:47.503Z,83.25
2022-10-13T10:13:47.706Z,82.24
2022-10-13T10:14:47.497Z,82.14
2022-10-13T10:15:47.483Z,80.92
2022-10-13T10:16:47.469Z,81.23
2022-10-13T10:17:47.468Z,80.92
2022-10-13T10:18:47.475Z,81.12
2022-10-13T10:19:47.435Z,80.76
2022-10-13T10:20:47.431Z,80.96
2022-10-13T10:21:47.450Z,80.96
2022-10-13T10:22:47.407Z,81.57
2022-10-13T10:23:47.405Z,81.77
2022-10-13T10:24:47.379Z,81.37
2022-10-13T10:25:47.383Z,81.97
2022-10-13T10:26:47.352Z,81.16
2022-10-13T10:27:47.383Z,81.26
2022-10-13T10:28:47.399Z,81.57
2022-10-13T10:29:47.327Z,81.57
2022-10-13T10:30:47.312Z,81.46
2022-10-13T10:31:47.299Z,81.97
2022-10-13T10:32:47.299Z,82.17
2022-10-13T10:33:47.289Z,82.17
2022-10-13T10:34:47.499Z,82.38
2022-10-13T10:35:48.020Z,81.46
2022-10-13T10:36:47.365Z,81.37
2022-10-13T10:37:47.392Z,81.23
2022-10-13T10:38:47.291Z,81.63
2022-10-13T10:39:47.467Z,81.23
2022-10-13T10:40:47.460Z,81.52
2022-10-13T10:41:47.187Z,81.02
2022-10-13T10:42:51.235Z,81.43
2022-10-13T10:43:47.203Z,82.03
2022-10-13T10:45:47.140Z,82.03
2022-10-13T10:46:47.120Z,82.14
2022-10-13T10:47:47.120Z,81.23
2022-10-13T10:48:47.111Z,81.83
2022-10-13T10:49:47.101Z,81.63
2022-10-13T10:50:47.081Z,82.24
2022-10-13T10:51:47.074Z,81.23
2022-10-13T10:52:47.060Z,80.92
2022-10-13T10:53:47.068Z,80.52
2022-10-13T10:54:49.345Z,80.82
2022-10-13T10:55:47.060Z,80.92
2022-10-13T10:56:47.014Z,81.52
2022-10-13T10:57:47.000Z,81.02
2022-10-13T10:58:46.984Z,81.12
2022-10-13T10:59:48.955Z,81.02
2022-10-13T11:00:46.974Z,81.32
2022-10-13T11:01:47.003Z,81.02
2022-10-13T11:02:46.944Z,81.73
2022-10-13T11:03:46.951Z,80.72
2022-10-13T11:04:46.920Z,80.92
2022-10-13T11:05:46.944Z,81.02
2022-10-13T11:06:46.896Z,81.29
2022-10-13T11:07:46.925Z,81.18
2022-10-13T11:08:46.872Z,81.39
2022-10-13T11:09:46.877Z,80.88
2022-10-13T11:10:46.880Z,79.87
2022-10-13T11:11:46.875Z,80.58
2022-10-13T11:12:46.825Z,80.38
2022-10-13T11:13:46.825Z,79.93
2022-10-13T11:14:46.813Z,79.73
2022-10-13T11:15:46.830Z,79.22
2022-10-13T11:16:46.805Z,79.13
2022-10-13T11:17:46.777Z,78.42
2022-10-13T11:18:46.753Z,78.31
2022-10-13T11:19:46.756Z,78.92
2022-10-13T11:20:46.736Z,78.58
2022-10-13T11:21:46.737Z,79.08
2022-10-13T11:22:46.736Z,78.58
2022-10-13T11:23:46.725Z,78.08
2022-10-13T11:24:46.687Z,77.77
2022-10-13T11:25:46.692Z,77.43
2022-10-13T11:26:46.677Z,77.84
2022-10-13T11:27:46.687Z,77.33
2022-10-13T11:28:46.728Z,77.43
2022-10-13T11:29:46.636Z,77.13
2022-10-13T11:30:46.657Z,77.13
2022-10-13T11:31:46.628Z,77.13
2022-10-13T11:32:46.598Z,76.93
2022-10-13T11:33:46.617Z,77.29
2022-10-13T11:34:46.597Z,77.09
2022-10-13T11:35:46.581Z,76.89
2022-10-13T11:36:46.556Z,77.60
2022-10-13T11:37:55.792Z,77.60
2022-10-13T11:38:47.549Z,77.19
2022-10-13T11:39:46.528Z,76.99
2022-10-13T11:40:46.517Z,76.75
2022-10-13T11:41:46.524Z,77.06
2022-10-13T11:42:46.528Z,76.15
2022-10-13T11:43:46.489Z,75.34
2022-10-13T11:44:46.731Z,75.64
2022-10-13T11:45:46.469Z,76.15
2022-10-13T11:46:46.466Z,75.74
2022-10-13T11:47:46.469Z,75.84
2022-10-13T11:48:46.533Z,75.31
2022-10-13T11:49:46.422Z,75.31
2022-10-13T11:50:46.420Z,75.51
2022-10-13T11:51:46.426Z,75.20
2022-10-13T11:52:46.570Z,74.49
2022-10-13T11:53:46.442Z,74.60
2022-10-13T11:54:46.462Z,74.69
2022-10-13T11:55:46.422Z,74.19
2022-10-13T11:56:48.607Z,74.56
2022-10-13T11:57:46.454Z,74.76
2022-10-13T11:58:46.369Z,74.05
2022-10-13T11:59:46.342Z,73.05
2022-10-13T12:00:46.357Z,72.34
2022-10-13T12:01:46.350Z,72.20
2022-10-13T12:02:46.484Z,71.73
2022-10-13T12:03:46.334Z,72.11
2022-10-13T12:04:46.860Z,71.94
2022-10-13T12:05:46.243Z,72.41
2022-10-13T12:06:46.273Z,72.00
2022-10-13T12:07:46.201Z,71.80
2022-10-13T12:08:47.074Z,71.91
2022-10-13T12:09:46.202Z,72.20
2022-10-13T12:10:46.174Z,72.11
2022-10-13T12:11:46.184Z,72.81
2022-10-13T12:12:46.154Z,71.77
2022-10-13T12:13:46.162Z,71.57
2022-10-13T12:14:46.136Z,72.17
2022-10-13T12:15:46.115Z,70.66
2022-10-13T12:16:46.189Z,70.46
2022-10-13T12:17:46.105Z,70.46
2022-10-13T12:18:46.093Z,70.26
2022-10-13T12:19:46.079Z,70.39
2022-10-13T12:20:46.105Z,70.29
2022-10-13T12:21:46.058Z,70.79
2022-10-13T12:22:46.067Z,70.39
2022-10-13T12:23:46.027Z,71.06
2022-10-13T12:24:46.022Z,70.06
2022-10-13T12:25:46.019Z,70.12
2022-10-13T12:26:46.035Z,70.93
2022-10-13T12:27:46.003Z,70.02
2022-10-13T12:28:46.020Z,70.70
2022-10-13T12:29:46.068Z,69.76
2022-10-13T12:30:45.979Z,69.15
2022-10-13T12:31:45.979Z,68.21
2022-10-13T12:32:46.103Z,68.71
2022-10-13T12:33:46.052Z,68.91
2022-10-13T12:34:46.041Z,68.41
2022-10-13T12:35:46.038Z,68.11
2022-10-13T12:36:46.082Z,67.68
2022-10-13T12:37:46.118Z,68.18
2022-10-13T12:38:46.183Z,66.47
2022-10-13T12:39:46.098Z,65.97
2022-10-13T12:40:46.096Z,67.38
2022-10-13T12:41:46.100Z,66.87
2022-10-13T12:42:46.189Z,67.47
2022-10-13T12:43:46.146Z,68.18
2022-10-13T12:44:46.150Z,68.78
2022-10-13T12:45:46.089Z,68.35
2022-10-13T12:46:46.174Z,67.04
2022-10-13T12:47:46.095Z,66.71
2022-10-13T12:48:46.199Z,65.44
2022-10-13T12:49:45.779Z,65.64
2022-10-13T12:50:46.115Z,66.34
2022-10-13T12:51:45.722Z,65.87
2022-10-13T12:52:45.726Z,66.97
2022-10-13T12:53:45.703Z,66.60
2022-10-13T12:54:45.696Z,67.68
2022-10-13T12:55:45.670Z,66.97